Time;durP1;ratioP1;P1;durP2;ratioP2;P2;SDS_P1;SDS_P2;PMS_P1;PMS_P2;Temp;Humidity;BMP_temperature;BMP_pressure;BME280_temperature;BME280_humidity;BME280_pressure;Samples;Min_cycle;Max_cycle;Signal;HPM_P1;HPM_P2
2022/08/06 00:02:54;;;;;;;8.80;2.30;;;14.40;50.80;;;;;;5053048;28;20391;-76
2022/08/06 00:05:20;;;;;;;4.25;2.60;;;14.50;50.40;;;;;;5052340;28;20386;-75
2022/08/06 00:07:46;;;;;;;5.60;2.58;;;14.70;49.40;;;;;;5051188;28;20386;-75
2022/08/06 00:10:12;;;;;;;11.18;2.95;;;14.60;49.00;;;;;;5051840;28;20405;-76
2022/08/06 00:12:38;;;;;;;8.03;2.50;;;14.70;49.00;;;;;;5051554;28;20382;-77
2022/08/06 00:15:05;;;;;;;6.23;2.70;;;14.70;48.90;;;;;;5052489;28;20381;-75
2022/08/06 00:17:31;;;;;;;4.13;2.35;;;14.50;49.80;;;;;;5051632;28;20850;-76
2022/08/06 00:19:57;;;;;;;5.90;2.33;;;14.20;52.80;;;;;;5051914;28;20385;-76
2022/08/06 00:22:22;;;;;;;9.13;2.70;;;14.00;55.60;;;;;;5052363;28;20523;-76
2022/08/06 00:31:13;;;;;;;9.52;3.40;;;13.60;62.40;;;;;;5051233;28;20384;-77
2022/08/06 00:33:41;;;;;;;7.00;3.30;;;13.80;60.20;;;;;;5050885;28;20377;-75
2022/08/06 00:36:07;;;;;;;9.65;3.10;;;13.80;60.40;;;;;;5051358;28;20438;-76
2022/08/06 00:38:32;;;;;;;6.53;2.85;;;13.70;60.80;;;;;;5051396;28;20413;-76
2022/08/06 00:40:58;;;;;;;6.07;2.97;;;13.60;61.30;;;;;;5050731;28;20378;-76
2022/08/06 00:43:25;;;;;;;5.85;3.00;;;13.50;63.60;;;;;;5052000;28;20377;-77
2022/08/06 00:45:50;;;;;;;5.78;3.20;;;13.70;62.10;;;;;;5052074;28;20381;-75
2022/08/06 00:48:16;;;;;;;5.90;3.10;;;13.80;61.00;;;;;;5051924;28;20386;-76
2022/08/06 00:50:41;;;;;;;6.03;3.30;;;13.90;60.10;;;;;;5051521;28;20401;-75
2022/08/06 00:53:07;;;;;;;7.20;3.00;;;13.80;59.90;;;;;;5051609;28;20382;-77
2022/08/06 00:55:34;;;;;;;5.80;3.10;;;13.90;59.40;;;;;;5051911;28;20385;-75
2022/08/06 00:57:59;;;;;;;7.77;2.90;;;13.80;60.30;;;;;;5052350;28;20385;-77
2022/08/06 01:00:25;;;;;;;7.17;2.80;;;13.80;60.60;;;;;;5055855;28;20416;-76
2022/08/06 01:02:50;;;;;;;5.37;2.60;;;13.60;62.10;;;;;;5050906;28;20886;-75
2022/08/06 01:05:16;;;;;;;6.28;2.97;;;13.40;65.50;;;;;;5050855;28;20463;-75
2022/08/06 01:07:42;;;;;;;5.40;2.95;;;13.40;66.90;;;;;;5049640;28;20874;-76
2022/08/06 01:10:07;;;;;;;10.38;3.20;;;13.50;67.20;;;;;;5058588;28;20794;-76
2022/08/06 01:12:33;;;;;;;5.75;2.80;;;13.50;68.60;;;;;;5078684;28;20401;-76
2022/08/06 01:14:59;;;;;;;4.70;3.00;;;13.30;69.60;;;;;;5079771;28;20396;-75
2022/08/06 01:17:55;;;;;;;5.93;2.80;;;13.20;69.50;;;;;;5056512;28;20894;-76
2022/08/06 01:20:46;;;;;;;4.45;2.83;;;13.20;68.30;;;;;;5054868;28;20385;-75
2022/08/06 01:23:20;;;;;;;6.50;3.10;;;13.50;65.60;;;;;;5054969;28;20389;-76
2022/08/06 01:26:23;;;;;;;5.70;2.80;;;13.60;65.20;;;;;;5055942;28;20750;-75
2022/08/06 01:29:00;;;;;;;6.18;2.90;;;13.70;63.90;;;;;;5055862;28;20443;-75
2022/08/06 01:31:50;;;;;;;6.15;2.90;;;13.60;64.30;;;;;;5054801;28;20480;-76
2022/08/06 01:34:31;;;;;;;6.18;2.95;;;13.80;61.90;;;;;;5054608;28;20464;-76
2022/08/06 01:37:08;;;;;;;7.00;3.10;;;13.60;64.00;;;;;;5053996;28;20396;-76
2022/08/06 01:39:36;;;;;;;11.77;3.78;;;13.70;64.00;;;;;;5052641;28;20472;-76
2022/08/06 01:42:03;;;;;;;6.97;3.20;;;13.70;62.80;;;;;;5053843;28;20401;-76
2022/08/06 01:44:34;;;;;;;6.50;3.20;;;13.70;64.30;;;;;;5054384;28;20870;-76
2022/08/06 01:47:08;;;;;;;10.63;3.50;;;13.40;67.60;;;;;;5052885;28;20393;-76
2022/08/06 01:49:36;;;;;;;7.43;3.00;;;13.20;69.50;;;;;;5053930;28;20450;-75
2022/08/06 01:52:02;;;;;;;7.07;2.90;;;13.10;72.50;;;;;;5054142;28;20460;-75
2022/08/06 01:54:30;;;;;;;5.43;2.97;;;13.00;75.00;;;;;;5057670;28;20424;-75
2022/08/06 01:56:59;;;;;;;8.77;3.05;;;12.90;76.10;;;;;;5060493;28;20382;-76
2022/08/06 01:59:34;;;;;;;5.93;3.20;;;12.80;77.50;;;;;;5059748;28;20442;-75
2022/08/06 02:02:02;;;;;;;5.53;3.60;;;12.90;77.60;;;;;;5053617;28;20397;-75
2022/08/06 02:04:33;;;;;;;9.35;3.78;;;12.90;76.30;;;;;;5066441;23;20524;-76
2022/08/06 02:07:01;;;;;;;7.85;3.90;;;12.90;76.70;;;;;;5053219;28;20385;-76
2022/08/06 02:09:28;;;;;;;6.82;3.45;;;12.80;76.40;;;;;;5052995;28;20405;-76
2022/08/06 02:12:01;;;;;;;5.57;3.53;;;12.80;78.30;;;;;;5052644;28;20385;-77
2022/08/06 02:14:30;;;;;;;5.00;3.60;;;12.70;79.10;;;;;;5052882;28;20381;-74
2022/08/06 02:16:59;;;;;;;7.72;3.28;;;12.60;81.10;;;;;;5052782;28;20788;-75
2022/08/06 02:19:28;;;;;;;4.22;3.20;;;12.60;80.40;;;;;;5053047;28;20389;-75
2022/08/06 02:21:55;;;;;;;14.20;3.40;;;12.60;79.90;;;;;;5051425;28;20392;-75
2022/08/06 02:24:23;;;;;;;6.35;2.90;;;12.60;80.10;;;;;;5052730;28;20746;-75
2022/08/06 02:26:50;;;;;;;3.90;2.90;;;12.70;78.60;;;;;;5052843;28;20731;-75
2022/08/06 02:29:18;;;;;;;8.40;3.40;;;12.60;79.10;;;;;;5052892;28;20401;-74
2022/08/06 02:31:44;;;;;;;9.38;3.15;;;12.80;78.20;;;;;;5052721;28;20382;-77
2022/08/06 02:34:10;;;;;;;9.50;3.72;;;12.70;78.50;;;;;;5052701;28;20384;-75
2022/08/06 02:36:49;;;;;;;8.93;3.85;;;12.70;79.70;;;;;;5052638;28;20412;-74
2022/08/06 02:39:22;;;;;;;6.68;3.83;;;12.70;80.40;;;;;;5052642;28;20404;-75
2022/08/06 02:42:05;;;;;;;9.32;4.25;;;12.80;78.30;;;;;;5052478;28;20385;-75
2022/08/06 02:44:45;;;;;;;5.97;3.25;;;12.60;81.80;;;;;;5052559;28;20489;-77
2022/08/06 02:47:20;;;;;;;4.05;3.10;;;12.60;83.00;;;;;;5052585;28;20403;-77
2022/08/06 02:49:50;;;;;;;5.10;2.90;;;12.50;83.70;;;;;;5052268;28;20428;-76
2022/08/06 02:52:37;;;;;;;5.60;2.90;;;12.40;84.50;;;;;;5052114;28;20413;-75
2022/08/06 02:55:07;;;;;;;3.95;2.80;;;12.30;86.20;;;;;;5050850;28;20815;-76
2022/08/06 02:57:38;;;;;;;6.05;3.10;;;12.20;88.20;;;;;;5052384;28;20827;-76
2022/08/06 03:00:07;;;;;;;7.70;3.65;;;12.10;89.70;;;;;;5052028;28;20400;-76
2022/08/06 03:02:35;;;;;;;6.50;3.50;;;12.10;90.90;;;;;;5051567;28;20381;-77
2022/08/06 03:05:03;;;;;;;4.53;3.22;;;12.10;91.30;;;;;;5051938;28;20411;-76
2022/08/06 03:07:31;;;;;;;8.13;3.60;;;12.10;91.50;;;;;;5051926;28;20393;-76
2022/08/06 03:09:57;;;;;;;7.68;3.13;;;12.00;92.20;;;;;;5051737;28;20401;-76
2022/08/06 03:12:24;;;;;;;8.13;3.10;;;11.90;93.80;;;;;;5051661;28;20435;-77
2022/08/06 03:14:52;;;;;;;6.35;3.50;;;11.90;93.90;;;;;;5056202;28;20381;-77
2022/08/06 03:17:20;;;;;;;6.68;3.40;;;11.90;94.90;;;;;;5060207;28;20389;-76
2022/08/06 03:19:47;;;;;;;4.97;3.30;;;12.00;95.00;;;;;;5062529;28;20759;-76
2022/08/06 03:22:15;;;;;;;6.03;3.40;;;12.00;94.50;;;;;;5063203;28;20909;-75
2022/08/06 03:24:44;;;;;;;7.25;3.30;;;12.10;91.40;;;;;;5062036;28;20389;-76
2022/08/06 03:27:11;;;;;;;9.73;3.85;;;12.30;90.20;;;;;;5062692;28;20386;-77
2022/08/06 03:29:39;;;;;;;8.68;4.25;;;12.60;84.50;;;;;;5059873;28;20401;-76
2022/08/06 03:32:06;;;;;;;10.38;3.97;;;12.80;81.60;;;;;;5058093;28;20397;-76
2022/08/06 03:34:34;;;;;;;15.07;4.80;;;12.90;80.50;;;;;;5052063;28;20389;-76
2022/08/06 03:37:02;;;;;;;9.55;4.20;;;13.00;78.60;;;;;;5051434;28;20750;-75
2022/08/06 03:39:30;;;;;;;10.55;4.10;;;13.00;78.30;;;;;;5051312;28;20382;-75
2022/08/06 03:41:56;;;;;;;9.20;4.47;;;13.00;78.10;;;;;;5051112;28;20476;-75
2022/08/06 03:44:22;;;;;;;8.47;4.90;;;12.90;78.80;;;;;;5051549;28;20959;-76
2022/08/06 03:47:25;;;;;;;7.50;4.38;;;12.80;80.50;;;;;;5051422;28;20389;-75
2022/08/06 03:49:55;;;;;;;8.90;4.50;;;12.90;79.40;;;;;;5050618;28;20405;-75
2022/08/06 03:52:25;;;;;;;9.70;4.82;;;12.90;78.50;;;;;;5051000;28;20472;-76
2022/08/06 03:54:54;;;;;;;7.50;4.43;;;13.00;77.40;;;;;;5051325;28;20461;-76
2022/08/06 03:57:24;;;;;;;14.38;4.85;;;12.90;77.50;;;;;;5051162;28;20467;-75
2022/08/06 03:59:54;;;;;;;9.35;4.03;;;13.00;77.20;;;;;;5051610;28;20381;-75
2022/08/06 04:02:20;;;;;;;9.27;4.53;;;12.90;78.70;;;;;;5051588;28;20385;-75
2022/08/06 04:04:47;;;;;;;8.13;4.27;;;12.90;79.00;;;;;;5051483;28;20401;-75
2022/08/06 04:07:16;;;;;;;9.38;4.50;;;12.70;81.20;;;;;;5051836;28;20400;-75
2022/08/06 04:09:44;;;;;;;7.93;4.47;;;12.50;83.90;;;;;;5051584;28;20484;-75
2022/08/06 04:12:10;;;;;;;9.48;4.60;;;12.40;88.00;;;;;;5051931;28;20385;-76
2022/08/06 04:14:36;;;;;;;10.38;4.80;;;12.40;89.80;;;;;;5052634;28;20395;-76
2022/08/06 04:17:04;;;;;;;11.43;4.30;;;12.40;89.90;;;;;;5054548;28;20393;-76
2022/08/06 04:19:31;;;;;;;15.20;5.30;;;12.30;90.70;;;;;;5053657;28;20432;-76
2022/08/06 04:21:57;;;;;;;11.45;6.40;;;12.20;92.50;;;;;;5054454;28;20416;-75
2022/08/06 04:24:22;;;;;;;7.77;4.73;;;12.10;95.10;;;;;;5053421;28;20381;-76
2022/08/06 04:26:52;;;;;;;9.73;5.30;;;12.20;95.40;;;;;;5053260;28;20390;-75
2022/08/06 04:29:19;;;;;;;8.88;4.60;;;12.40;93.80;;;;;;5053080;28;20419;-75
2022/08/06 04:31:47;;;;;;;12.23;5.15;;;12.30;94.00;;;;;;5050291;28;20885;-76
2022/08/06 04:34:17;;;;;;;9.20;4.20;;;12.50;93.80;;;;;;5051446;28;20393;-77
2022/08/06 04:36:42;;;;;;;15.27;5.82;;;12.60;93.50;;;;;;5052054;28;20388;-75
2022/08/06 04:39:08;;;;;;;10.05;4.53;;;12.70;92.50;;;;;;5050912;28;20389;-75
2022/08/06 04:41:34;;;;;;;5.88;4.30;;;12.80;91.00;;;;;;5050423;28;20388;-75
2022/08/06 04:43:59;;;;;;;9.18;4.40;;;12.80;90.20;;;;;;5050500;28;20396;-75
2022/08/06 04:46:25;;;;;;;8.27;4.70;;;12.80;91.90;;;;;;5053212;28;20377;-75
2022/08/06 04:48:51;;;;;;;6.32;4.30;;;12.80;90.90;;;;;;5053345;28;20389;-76
2022/08/06 04:51:17;;;;;;;12.40;5.10;;;12.70;92.50;;;;;;5054195;28;20747;-76
2022/08/06 04:53:42;;;;;;;11.70;4.95;;;12.80;93.00;;;;;;5054477;28;20392;-76
2022/08/06 04:56:09;;;;;;;8.40;4.50;;;12.80;93.20;;;;;;5055225;28;20381;-76
2022/08/06 04:58:35;;;;;;;7.95;5.20;;;12.90;91.30;;;;;;5054367;28;20377;-76
2022/08/06 05:01:01;;;;;;;12.90;4.20;;;13.10;88.90;;;;;;5054241;28;20389;-76
2022/08/06 05:03:28;;;;;;;7.45;4.32;;;13.20;85.10;;;;;;5052774;28;20405;-76
2022/08/06 05:06:22;;;;;;;6.60;4.40;;;13.10;85.80;;;;;;5054146;28;20478;-76
2022/08/06 05:08:57;;;;;;;7.10;4.80;;;13.10;88.20;;;;;;5053743;28;20384;-76
2022/08/06 05:11:30;;;;;;;11.00;4.22;;;13.20;86.80;;;;;;5053860;28;20389;-76
2022/08/06 05:14:03;;;;;;;11.52;4.50;;;13.20;87.00;;;;;;5054008;28;20384;-76
2022/08/06 05:16:34;;;;;;;7.60;4.80;;;13.20;86.30;;;;;;5054038;28;20846;-75
2022/08/06 05:19:08;;;;;;;5.93;4.25;;;13.30;84.60;;;;;;5052514;28;20443;-74
2022/08/06 05:21:37;;;;;;;10.70;5.55;;;13.40;79.90;;;;;;5053736;28;20875;-74
2022/08/06 05:24:04;;;;;;;9.73;5.38;;;13.70;76.90;;;;;;5053697;28;20381;-74
2022/08/06 05:26:30;;;;;;;13.20;5.07;;;13.90;72.90;;;;;;5053840;28;20370;-76
2022/08/06 05:28:56;;;;;;;10.77;5.10;;;13.80;73.50;;;;;;5053499;28;20563;-76
2022/08/06 05:31:36;;;;;;;12.53;5.07;;;13.90;72.50;;;;;;5053457;28;20492;-75
2022/08/06 05:34:08;;;;;;;12.98;5.50;;;14.20;69.20;;;;;;5053677;28;20488;-75
2022/08/06 05:36:34;;;;;;;13.17;5.10;;;14.40;65.80;;;;;;5053691;28;20389;-75
2022/08/06 05:39:00;;;;;;;12.87;5.17;;;14.50;63.80;;;;;;5053463;28;20430;-75
2022/08/06 05:41:28;;;;;;;13.53;5.43;;;14.50;63.90;;;;;;5053374;28;20385;-76
2022/08/06 05:43:53;;;;;;;12.80;5.75;;;14.60;61.70;;;;;;5053390;28;20870;-75
2022/08/06 05:46:21;;;;;;;14.67;5.60;;;14.60;61.30;;;;;;5053500;28;20492;-76
2022/08/06 05:49:07;;;;;;;11.70;5.00;;;14.60;61.30;;;;;;5053416;28;20412;-76
2022/08/06 05:51:51;;;;;;;18.08;5.30;;;14.70;61.10;;;;;;5053449;28;20392;-76
2022/08/06 05:54:42;;;;;;;15.48;5.88;;;14.80;59.10;;;;;;5053219;28;20377;-76
2022/08/06 05:57:31;;;;;;;11.55;5.38;;;14.80;59.20;;;;;;5052875;28;20734;-75
2022/08/06 06:00:00;;;;;;;14.00;5.63;;;14.90;58.00;;;;;;5053183;28;20800;-75
2022/08/06 06:02:28;;;;;;;12.13;5.55;;;15.00;57.70;;;;;;5052936;28;20378;-75
2022/08/06 06:04:54;;;;;;;10.38;5.22;;;15.00;57.70;;;;;;5052990;28;20421;-76
2022/08/06 06:07:20;;;;;;;11.00;5.60;;;15.10;56.90;;;;;;5053043;28;20425;-76
2022/08/06 06:09:46;;;;;;;11.60;5.57;;;15.20;56.50;;;;;;5052692;28;20401;-76
2022/08/06 06:12:12;;;;;;;15.43;5.30;;;15.30;55.70;;;;;;5068213;28;20792;-76
2022/08/06 06:14:45;;;;;;;14.60;5.40;;;15.40;54.50;;;;;;5053171;28;20439;-76
2022/08/06 06:17:30;;;;;;;7.10;4.82;;;15.40;54.60;;;;;;5053060;28;20408;-75
2022/08/06 06:20:11;;;;;;;14.38;5.68;;;15.40;55.00;;;;;;5052853;28;20419;-75
2022/08/06 06:23:01;;;;;;;10.73;4.80;;;15.50;53.50;;;;;;5052418;28;20389;-75
2022/08/06 06:25:32;;;;;;;14.38;5.15;;;15.60;53.50;;;;;;5051295;28;20496;-76
2022/08/06 06:28:29;;;;;;;8.90;4.70;;;15.70;52.40;;;;;;5051321;28;20443;-76
2022/08/06 06:31:02;;;;;;;15.10;4.90;;;15.80;51.70;;;;;;5052182;28;20404;-76
2022/08/06 06:33:56;;;;;;;8.90;5.00;;;15.80;50.60;;;;;;5052334;28;20480;-75
2022/08/06 06:36:34;;;;;;;10.95;4.10;;;15.90;51.50;;;;;;5052188;28;20377;-76
2022/08/06 06:39:26;;;;;;;9.80;3.70;;;16.00;49.40;;;;;;5052053;28;20385;-77
2022/08/06 06:41:57;;;;;;;9.50;4.05;;;15.90;48.10;;;;;;5049323;28;20413;-77
2022/08/06 06:44:50;;;;;;;10.10;4.10;;;15.90;49.70;;;;;;5052197;28;20750;-77
2022/08/06 06:47:40;;;;;;;8.13;4.00;;;15.90;49.60;;;;;;5037238;28;20880;-74
2022/08/06 06:50:11;;;;;;;8.27;3.72;;;16.00;49.30;;;;;;5035928;28;20402;-77
2022/08/06 06:52:43;;;;;;;5.25;3.20;;;16.20;49.20;;;;;;5053111;28;20389;-77
2022/08/06 06:55:35;;;;;;;6.43;3.22;;;16.30;46.60;;;;;;5049591;28;20705;-75
2022/08/06 06:58:12;;;;;;;9.00;3.67;;;16.50;45.60;;;;;;5046509;28;20442;-76
2022/08/06 07:00:38;;;;;;;9.38;3.45;;;16.50;44.70;;;;;;5042426;28;20412;-76
2022/08/06 07:03:05;;;;;;;6.20;3.70;;;16.50;44.60;;;;;;5064145;28;20407;-76
2022/08/06 07:05:34;;;;;;;10.07;4.60;;;16.60;44.80;;;;;;5050482;28;20393;-76
2022/08/06 07:08:02;;;;;;;9.00;2.70;;;16.70;44.50;;;;;;5044564;28;20394;-76
2022/08/06 07:10:28;;;;;;;6.05;2.67;;;16.60;40.50;;;;;;5051879;28;20437;-76
2022/08/06 07:12:56;;;;;;;11.82;2.60;;;16.60;41.60;;;;;;5062708;28;20463;-76
2022/08/06 07:15:23;;;;;;;8.10;2.90;;;16.70;41.90;;;;;;5070911;28;20880;-77
2022/08/06 07:17:50;;;;;;;7.00;2.60;;;16.90;41.10;;;;;;5071936;28;20396;-76
2022/08/06 07:20:24;;;;;;;8.68;2.90;;;17.00;39.80;;;;;;5071932;28;20415;-74
2022/08/06 07:22:52;;;;;;;6.20;2.33;;;17.20;39.50;;;;;;5071479;28;20437;-76
2022/08/06 07:25:18;;;;;;;5.70;1.95;;;17.30;38.00;;;;;;5059533;28;20416;-76
2022/08/06 07:27:48;;;;;;;4.70;1.95;;;17.30;37.80;;;;;;5052349;28;20390;-76
2022/08/06 07:30:16;;;;;;;4.80;2.10;;;17.30;36.50;;;;;;5052227;28;21050;-76
2022/08/06 07:32:43;;;;;;;3.67;1.92;;;17.40;37.30;;;;;;5053403;28;20382;-76
2022/08/06 07:35:10;;;;;;;7.83;2.20;;;17.40;35.70;;;;;;5053741;28;20728;-76
2022/08/06 07:37:39;;;;;;;3.55;1.90;;;17.30;36.80;;;;;;5052087;28;20743;-76
2022/08/06 07:40:08;;;;;;;8.80;2.40;;;17.30;36.00;;;;;;5052049;28;20465;-76
2022/08/06 07:42:36;;;;;;;4.78;1.58;;;17.40;37.20;;;;;;5051938;28;20394;-76
2022/08/06 07:45:04;;;;;;;5.03;1.77;;;17.40;33.90;;;;;;5047976;28;20517;-76
2022/08/06 07:47:39;;;;;;;5.90;2.10;;;17.50;34.80;;;;;;5049350;28;20455;-76
2022/08/06 07:50:10;;;;;;;5.40;1.70;;;17.70;35.50;;;;;;5046234;28;20421;-75
2022/08/06 07:52:39;;;;;;;2.88;1.42;;;17.90;32.80;;;;;;5051447;28;20483;-74
2022/08/06 07:55:07;;;;;;;5.88;1.40;;;17.90;30.90;;;;;;5068841;28;20883;-75
2022/08/06 07:57:32;;;;;;;3.92;1.20;;;17.80;30.40;;;;;;5055890;28;20389;-76
2022/08/06 07:59:59;;;;;;;3.80;1.30;;;17.80;29.20;;;;;;5048900;28;20790;-76
2022/08/06 08:02:25;;;;;;;4.22;1.50;;;17.80;30.20;;;;;;5044299;28;20710;-76
2022/08/06 08:07:36;;;;;;;7.55;1.70;;;18.00;29.10;;;;;;5034169;28;20370;-77
2022/08/06 08:10:02;;;;;;;6.30;2.00;;;18.20;28.20;;;;;;5042744;28;20510;-77
2022/08/06 08:12:28;;;;;;;4.07;1.45;;;18.40;26.90;;;;;;5027697;28;20422;-79
2022/08/06 08:14:54;;;;;;;4.28;1.60;;;18.50;27.40;;;;;;5016698;28;20399;-79
2022/08/06 08:17:19;;;;;;;5.43;1.80;;;18.70;26.30;;;;;;5034707;28;20402;-78
2022/08/06 08:19:45;;;;;;;5.68;1.60;;;18.90;25.70;;;;;;5021852;28;20388;-78
2022/08/06 08:22:13;;;;;;;5.10;1.50;;;19.10;24.70;;;;;;5030798;28;20403;-78
2022/08/06 08:24:40;;;;;;;2.70;1.58;;;19.10;24.30;;;;;;5036625;28;20392;-78
2022/08/06 08:27:09;;;;;;;6.95;4.40;;;19.40;23.50;;;;;;5041589;28;20671;-77
2022/08/06 08:29:35;;;;;;;8.60;1.60;;;19.60;24.00;;;;;;5033250;28;20412;-78
2022/08/06 08:32:01;;;;;;;7.63;1.70;;;19.70;23.10;;;;;;5038024;28;20403;-77
2022/08/06 08:34:27;;;;;;;2.67;1.85;;;19.50;24.30;;;;;;5037730;28;20375;-78
2022/08/06 08:36:52;;;;;;;3.42;1.30;;;19.50;24.30;;;;;;5036283;28;20973;-78
2022/08/06 08:39:18;;;;;;;2.97;1.27;;;19.50;23.20;;;;;;5024073;28;20720;-76
2022/08/06 08:41:48;;;;;;;4.85;1.30;;;19.70;22.40;;;;;;5040301;28;20463;-77
2022/08/06 08:44:19;;;;;;;3.60;1.00;;;19.40;20.20;;;;;;5039448;28;20411;-79
2022/08/06 08:46:46;;;;;;;2.75;0.93;;;19.20;20.00;;;;;;5027310;28;20424;-76
2022/08/06 08:49:41;;;;;;;3.40;1.10;;;19.10;20.20;;;;;;5015680;28;20735;-77
2022/08/06 08:52:14;;;;;;;2.63;1.00;;;19.30;20.20;;;;;;5017675;28;20385;-78
2022/08/06 08:54:45;;;;;;;3.93;1.10;;;19.50;19.10;;;;;;5042349;28;20409;-78
2022/08/06 08:57:12;;;;;;;5.10;1.20;;;19.70;19.60;;;;;;5048787;28;20387;-77
2022/08/06 08:59:40;;;;;;;2.53;1.30;;;20.00;18.40;;;;;;5048112;28;20390;-77
2022/08/06 09:02:08;;;;;;;4.00;1.20;;;20.30;17.90;;;;;;5023276;28;20800;-78
2022/08/06 09:04:34;;;;;;;1.90;0.90;;;20.50;15.90;;;;;;5003668;28;20405;-78
2022/08/06 09:07:02;;;;;;;4.50;0.90;;;20.70;14.90;;;;;;5018120;28;20944;-78
2022/08/06 09:09:28;;;;;;;3.17;0.88;;;20.70;15.00;;;;;;5018166;28;20485;-78
2022/08/06 09:11:54;;;;;;;1.75;0.80;;;20.70;14.30;;;;;;5001278;28;20460;-77
2022/08/06 09:14:20;;;;;;;3.47;0.90;;;20.70;14.20;;;;;;5013942;28;20466;-77
2022/08/06 09:16:46;;;;;;;3.78;0.90;;;20.70;14.70;;;;;;5012954;28;20399;-78
2022/08/06 09:19:12;;;;;;;3.80;1.00;;;20.60;14.30;;;;;;5027448;28;20911;-80
2022/08/06 09:21:37;;;;;;;2.30;0.90;;;20.50;14.20;;;;;;5028590;28;20414;-77
2022/08/06 09:24:04;;;;;;;3.50;1.10;;;20.70;14.10;;;;;;5035420;28;20387;-76
2022/08/06 09:26:33;;;;;;;2.35;0.80;;;21.10;14.30;;;;;;5052911;28;20387;-75
2022/08/06 09:28:59;;;;;;;2.95;0.90;;;21.10;12.90;;;;;;5052319;28;20399;-77
2022/08/06 09:31:25;;;;;;;2.55;0.90;;;21.10;13.60;;;;;;5043648;28;20445;-77
2022/08/06 09:34:04;;;;;;;3.80;0.90;;;21.40;13.00;;;;;;5034787;28;20387;-75
2022/08/06 09:36:43;;;;;;;1.42;0.80;;;21.40;12.20;;;;;;5018376;28;20401;-76
2022/08/06 09:39:09;;;;;;;1.40;0.73;;;21.20;12.90;;;;;;5013714;28;20393;-76
2022/08/06 09:41:48;;;;;;;3.38;0.82;;;20.90;12.80;;;;;;5024009;28;20478;-76
2022/08/06 09:44:13;;;;;;;2.38;0.98;;;20.90;13.90;;;;;;5027797;28;20420;-76
2022/08/06 09:46:41;;;;;;;4.60;1.20;;;21.10;13.60;;;;;;5012641;28;20397;-76
2022/08/06 09:49:09;;;;;;;3.10;1.00;;;21.20;12.40;;;;;;5010025;28;20495;-75
2022/08/06 09:51:35;;;;;;;2.83;1.52;;;21.20;12.90;;;;;;5012672;28;20389;-76
2022/08/06 09:54:02;;;;;;;4.95;1.00;;;20.80;13.80;;;;;;5013023;28;20805;-76
2022/08/06 09:56:28;;;;;;;2.10;0.80;;;20.90;14.10;;;;;;5012792;28;20396;-77
2022/08/06 09:58:59;;;;;;;2.33;1.00;;;21.10;12.90;;;;;;5018455;28;20486;-76
2022/08/06 10:01:25;;;;;;;3.97;0.90;;;20.70;12.90;;;;;;5014133;28;20410;-77
2022/08/06 10:03:53;;;;;;;2.17;1.00;;;20.60;13.60;;;;;;5031782;28;20414;-76
2022/08/06 10:06:20;;;;;;;1.50;1.00;;;20.80;14.00;;;;;;5032037;28;20494;-76
2022/08/06 10:08:48;;;;;;;5.00;0.90;;;20.80;13.50;;;;;;5032715;28;20433;-76
2022/08/06 10:11:14;;;;;;;2.03;0.90;;;21.00;14.20;;;;;;5031278;28;20419;-75
2022/08/06 10:13:46;;;;;;;2.20;0.80;;;21.10;11.70;;;;;;5033224;28;20482;-75
2022/08/06 10:16:18;;;;;;;2.10;0.97;;;21.20;13.00;;;;;;5032543;28;20384;-78
2022/08/06 10:18:46;;;;;;;1.50;0.80;;;21.30;12.70;;;;;;5032047;28;20418;-75
2022/08/06 10:21:15;;;;;;;2.60;1.00;;;21.30;13.00;;;;;;5032062;28;20399;-75
2022/08/06 10:23:44;;;;;;;2.92;1.00;;;21.40;12.40;;;;;;5032237;28;20393;-76
2022/08/06 10:26:13;;;;;;;2.50;1.10;;;21.30;12.90;;;;;;5024825;28;20414;-76
2022/08/06 10:28:41;;;;;;;2.30;0.90;;;21.00;13.80;;;;;;5034613;28;20391;-76
2022/08/06 10:31:10;;;;;;;3.00;1.10;;;20.90;14.30;;;;;;5029218;28;20403;-76
2022/08/06 10:33:51;;;;;;;3.28;0.90;;;21.00;13.80;;;;;;5002522;28;20404;-76
2022/08/06 10:36:30;;;;;;;3.90;0.90;;;20.90;13.50;;;;;;5009555;28;20397;-78
2022/08/06 10:38:56;;;;;;;2.30;0.90;;;20.70;14.50;;;;;;5018911;28;20399;-75
2022/08/06 10:41:23;;;;;;;5.20;0.90;;;20.60;14.50;;;;;;5019377;28;20539;-75
2022/08/06 10:43:49;;;;;;;2.40;1.00;;;20.60;14.70;;;;;;5011897;28;20450;-75
2022/08/06 10:46:15;;;;;;;3.00;1.10;;;20.50;15.10;;;;;;5013127;28;20416;-75
2022/08/06 10:48:44;;;;;;;1.33;0.70;;;20.50;15.30;;;;;;5013131;28;20791;-76
2022/08/06 10:51:11;;;;;;;2.50;1.00;;;20.70;13.00;;;;;;5006546;28;20427;-75
2022/08/06 10:53:42;;;;;;;3.65;1.00;;;20.90;12.50;;;;;;5032380;28;20382;-74
2022/08/06 10:56:10;;;;;;;3.97;1.20;;;21.10;12.30;;;;;;5030130;28;20529;-76
2022/08/06 10:58:37;;;;;;;2.00;0.90;;;21.50;10.70;;;;;;5041056;28;20391;-75
2022/08/06 11:01:06;;;;;;;1.90;1.00;;;21.70;10.00;;;;;;5042875;28;20446;-77
2022/08/06 11:03:44;;;;;;;2.08;1.20;;;21.90;9.70;;;;;;5030831;28;20445;-75
2022/08/06 11:06:28;;;;;;;2.60;1.00;;;22.30;9.30;;;;;;5014741;28;20398;-75
2022/08/06 11:09:13;;;;;;;2.80;0.80;;;22.70;8.10;;;;;;5032681;28;20879;-76
2022/08/06 11:12:12;;;;;;;3.73;0.90;;;22.80;7.70;;;;;;5021784;28;20396;-76
2022/08/06 11:14:39;;;;;;;2.70;0.80;;;23.00;8.70;;;;;;5012847;28;20380;-76
2022/08/06 11:17:06;;;;;;;3.03;1.30;;;23.60;6.70;;;;;;5012716;28;20381;-76
2022/08/06 11:19:46;;;;;;;1.70;1.00;;;24.00;7.10;;;;;;5012594;28;20442;-75
2022/08/06 11:22:34;;;;;;;2.40;0.90;;;24.10;6.50;;;;;;4995168;28;20396;-76
2022/08/06 11:25:02;;;;;;;5.20;1.10;;;24.20;6.00;;;;;;5012252;28;20417;-76
2022/08/06 11:27:51;;;;;;;3.47;1.00;;;24.10;6.10;;;;;;5012731;28;20443;-76
2022/08/06 11:30:17;;;;;;;1.47;0.80;;;24.20;7.20;;;;;;5012579;28;20932;-76
2022/08/06 11:32:49;;;;;;;2.63;1.00;;;24.50;6.20;;;;;;5011984;28;20392;-76
2022/08/06 11:35:32;;;;;;;3.05;0.93;;;24.60;5.30;;;;;;4994638;28;20885;-75
2022/08/06 11:38:03;;;;;;;2.83;0.90;;;24.20;5.90;;;;;;5012822;28;20897;-75
2022/08/06 11:40:55;;;;;;;2.60;1.05;;;23.80;6.80;;;;;;5012338;28;20399;-75
2022/08/06 11:43:46;;;;;;;2.00;0.90;;;23.20;6.60;;;;;;4997293;28;20411;-75
2022/08/06 11:46:17;;;;;;;1.50;0.90;;;22.60;8.00;;;;;;5012802;28;20391;-74
2022/08/06 11:48:58;;;;;;;3.05;1.42;;;22.10;9.30;;;;;;5012306;28;20388;-75
2022/08/06 11:51:40;;;;;;;5.20;1.50;;;22.40;9.50;;;;;;5012337;28;20476;-75
2022/08/06 11:54:24;;;;;;;1.95;0.98;;;22.70;8.20;;;;;;5011624;28;20911;-75
2022/08/06 11:57:02;;;;;;;2.33;1.00;;;23.20;7.40;;;;;;5011950;28;20877;-75
2022/08/06 11:59:28;;;;;;;2.10;0.90;;;23.50;6.60;;;;;;5020918;28;20455;-75
2022/08/06 12:01:54;;;;;;;2.70;0.90;;;23.50;6.20;;;;;;5031754;28;20602;-75
2022/08/06 12:04:35;;;;;;;1.23;0.80;;;23.40;7.40;;;;;;5013822;28;20768;-75
2022/08/06 12:07:21;;;;;;;2.00;1.20;;;23.30;7.60;;;;;;5031647;28;20945;-76
2022/08/06 12:09:58;;;;;;;2.60;0.70;;;23.50;8.60;;;;;;5013442;28;20403;-75
2022/08/06 12:12:24;;;;;;;2.40;0.90;;;23.50;6.90;;;;;;5012546;28;20408;-75
2022/08/06 12:14:51;;;;;;;1.80;0.80;;;23.40;6.90;;;;;;5011892;28;20409;-76
2022/08/06 12:17:19;;;;;;;2.03;1.10;;;23.40;7.50;;;;;;5011688;28;20391;-75
2022/08/06 12:19:46;;;;;;;6.25;1.20;;;23.60;7.20;;;;;;5012149;28;20389;-75
2022/08/06 12:22:13;;;;;;;2.28;0.75;;;23.50;7.00;;;;;;5011248;28;20927;-76
2022/08/06 12:24:40;;;;;;;2.40;0.90;;;23.60;7.30;;;;;;5018522;28;20407;-75
2022/08/06 12:27:06;;;;;;;2.50;1.20;;;23.60;6.90;;;;;;5042756;28;20383;-76
2022/08/06 12:29:33;;;;;;;2.00;0.80;;;23.60;8.00;;;;;;5037311;28;20482;-75
2022/08/06 12:31:59;;;;;;;1.53;0.80;;;23.60;7.40;;;;;;5036358;28;20463;-74
2022/08/06 12:34:25;;;;;;;4.40;1.10;;;23.80;7.30;;;;;;5028050;28;20817;-76
2022/08/06 12:36:51;;;;;;;2.60;1.00;;;23.80;7.80;;;;;;5027886;28;20903;-74
2022/08/06 12:39:17;;;;;;;1.50;1.13;;;23.30;8.00;;;;;;4996572;28;20395;-76
2022/08/06 12:41:43;;;;;;;3.57;1.07;;;23.10;8.10;;;;;;4993879;28;20479;-75
2022/08/06 12:44:09;;;;;;;1.85;1.10;;;23.30;8.70;;;;;;5027192;28;20486;-75
2022/08/06 12:46:34;;;;;;;2.20;1.00;;;23.70;7.60;;;;;;5013160;28;20420;-75
2022/08/06 12:49:00;;;;;;;2.78;1.20;;;23.30;7.90;;;;;;5011642;28;20803;-75
2022/08/06 12:51:26;;;;;;;4.50;1.00;;;23.10;8.10;;;;;;5025147;28;20492;-74
2022/08/06 12:53:56;;;;;;;6.90;1.70;;;23.20;8.30;;;;;;5050493;28;20420;-76
2022/08/06 12:56:23;;;;;;;2.07;1.10;;;23.30;8.10;;;;;;5051229;28;20393;-75
2022/08/06 12:58:52;;;;;;;5.18;1.00;;;23.30;7.70;;;;;;5052589;28;20385;-75
2022/08/06 13:01:24;;;;;;;2.10;1.10;;;23.50;6.00;;;;;;5038930;28;20399;-75
2022/08/06 13:03:53;;;;;;;5.20;1.10;;;23.20;7.00;;;;;;5025969;28;20485;-75
2022/08/06 13:06:24;;;;;;;2.80;1.00;;;23.50;7.50;;;;;;5019029;28;20411;-76
2022/08/06 13:08:51;;;;;;;5.97;4.55;;;23.70;7.80;;;;;;5054890;28;20741;-76
2022/08/06 13:11:16;;;;;;;2.80;1.10;;;24.00;6.30;;;;;;5043638;28;20454;-77
2022/08/06 13:13:50;;;;;;;1.70;1.00;;;23.60;6.10;;;;;;5034446;28;20403;-74
2022/08/06 13:16:16;;;;;;;3.85;1.52;;;23.40;6.50;;;;;;5035316;28;20383;-75